首页
METAR-TAF:

METAR-TAF

机场 :

Clearfield-Lawrence Airport

Clearfield, 宾夕法尼亚州, 美国

纬度: 41-02-48N, 经度: 078-24-42W, 海拔: 462米

当前天气观测

该预报发布于20分钟前的10:54 UTC
风速3节,风向多变
温度 16°C
湿度 100%
气压 1011 hPa
能見度: 1.6公里
少量云层高于800英尺
多云层高于2800英尺
阴天层高于3700英尺
大雨, 轻雾

METAR: KFIG 161054Z AUTO VRB03KT 1SM +RA BR FEW008 BKN028 OVC037 16/16 A2986 RMK AO2 SLP104 P0015 T01610161

时间: 07:14 (11:14 UTC)


TAF: 丢失

超过4000个机场的气象观测和天气预报(METAR&TAF报告)。

可查询的气象台以黄色和红色小点在地图上表示。

将鼠标移到小点上方,可查看气象台名称。

然后点击查看天气观测和预报。

如需切换地图:点击带黑十字的绿色按钮放大地图;点击带横线的绿色按钮缩小地图;或者点击绿色箭头查看邻近地区的地图。


METAR-TAF: